createdAt,value
2023-05-17T00:00:33.045Z,4.95
2023-05-17T00:02:59.890Z,4.43
2023-05-17T00:05:26.962Z,4.72
2023-05-17T00:07:53.938Z,5.03
2023-05-17T00:10:21.381Z,4.88
2023-05-17T00:12:48.258Z,5.00
2023-05-17T00:15:15.198Z,4.18
2023-05-17T00:17:42.108Z,4.50
2023-05-17T00:20:09.556Z,4.63
2023-05-17T00:22:37.061Z,4.35
2023-05-17T00:25:04.490Z,5.32
2023-05-17T00:27:31.423Z,5.03
2023-05-17T00:29:58.295Z,5.43
2023-05-17T00:32:25.185Z,5.05
2023-05-17T00:34:52.070Z,5.03
2023-05-17T00:37:18.989Z,4.57
2023-05-17T00:39:45.858Z,5.72
2023-05-17T00:42:13.315Z,5.75
2023-05-17T00:44:40.836Z,4.53
2023-05-17T00:47:08.070Z,5.53
2023-05-17T00:49:34.981Z,5.53
2023-05-17T00:52:02.163Z,5.40
2023-05-17T00:54:31.445Z,5.15
2023-05-17T00:57:01.320Z,5.10
2023-05-17T00:59:29.610Z,4.93
2023-05-17T01:01:57.103Z,4.60
2023-05-17T01:04:24.989Z,5.85
2023-05-17T01:06:52.082Z,5.03
2023-05-17T01:09:19.089Z,5.25
2023-05-17T01:12:01.446Z,4.63
2023-05-17T01:14:45.322Z,5.15
2023-05-17T01:17:46.247Z,5.15
2023-05-17T01:20:38.201Z,5.05
2023-05-17T01:23:48.105Z,5.68
2023-05-17T01:26:24.899Z,5.22
2023-05-17T01:28:55.015Z,6.57
2023-05-17T01:31:23.566Z,5.22
2023-05-17T01:33:50.874Z,5.38
2023-05-17T01:36:17.808Z,5.63
2023-05-17T01:38:44.651Z,5.65
2023-05-17T01:41:29.173Z,5.35
2023-05-17T01:44:33.611Z,4.95
2023-05-17T01:47:29.942Z,3.95
2023-05-17T01:50:01.000Z,5.60
2023-05-17T01:53:00.495Z,5.75
2023-05-17T01:55:33.157Z,6.00
2023-05-17T01:58:06.376Z,6.15
2023-05-17T02:00:34.394Z,5.63
2023-05-17T02:03:01.335Z,5.53
2023-05-17T02:05:28.417Z,4.75
2023-05-17T02:07:55.426Z,5.75
2023-05-17T02:10:22.530Z,5.38
2023-05-17T02:12:49.336Z,5.78
2023-05-17T02:15:16.900Z,5.22
2023-05-17T02:17:43.803Z,6.13
2023-05-17T02:20:12.041Z,6.70
2023-05-17T02:22:39.124Z,5.72
2023-05-17T02:25:08.039Z,5.32
2023-05-17T02:27:35.049Z,5.43
2023-05-17T02:30:03.817Z,5.47
2023-05-17T02:32:31.560Z,6.13
2023-05-17T02:34:58.991Z,6.00
2023-05-17T02:37:26.254Z,6.28
2023-05-17T02:39:53.205Z,6.45
2023-05-17T02:42:20.602Z,6.53
2023-05-17T02:44:52.773Z,6.25
2023-05-17T02:47:22.501Z,5.53
2023-05-17T02:49:49.372Z,6.30
2023-05-17T02:52:16.448Z,5.65
2023-05-17T02:54:43.942Z,5.65
2023-05-17T02:57:11.428Z,6.50
2023-05-17T02:59:38.360Z,7.30
2023-05-17T03:02:05.870Z,7.35
2023-05-17T03:04:33.994Z,5.25
2023-05-17T03:07:00.882Z,6.07
2023-05-17T03:09:30.207Z,6.72
2023-05-17T03:11:58.090Z,5.38
2023-05-17T03:14:28.474Z,5.97
2023-05-17T03:16:55.493Z,6.97
2023-05-17T03:19:23.523Z,5.90
2023-05-17T03:21:52.015Z,6.70
2023-05-17T03:24:19.380Z,6.35
2023-05-17T03:26:46.286Z,6.30
2023-05-17T03:29:13.746Z,6.32
2023-05-17T03:31:43.059Z,6.85
2023-05-17T03:34:10.115Z,7.18
2023-05-17T03:36:41.958Z,6.68
2023-05-17T03:39:09.132Z,6.70
2023-05-17T03:41:38.899Z,6.75
2023-05-17T03:44:05.805Z,6.93
2023-05-17T03:46:34.007Z,7.07
2023-05-17T03:49:00.929Z,6.93
2023-05-17T03:51:28.929Z,6.85
2023-05-17T03:54:00.899Z,5.93
2023-05-17T03:56:29.396Z,7.47
2023-05-17T03:58:56.239Z,6.90
2023-05-17T04:01:23.728Z,7.00
2023-05-17T04:03:50.814Z,7.50
2023-05-17T04:06:20.454Z,7.15
2023-05-17T04:08:47.305Z,7.38
2023-05-17T04:11:14.474Z,6.50
2023-05-17T04:13:43.008Z,6.85
2023-05-17T04:16:10.810Z,7.55
2023-05-17T04:18:41.176Z,7.28
2023-05-17T04:21:09.250Z,7.93
2023-05-17T04:23:37.684Z,7.10
2023-05-17T04:26:06.218Z,8.63
2023-05-17T04:28:36.756Z,7.30
2023-05-17T04:31:10.699Z,7.25
2023-05-17T04:33:38.228Z,7.15
2023-05-17T04:36:08.327Z,7.43
2023-05-17T04:38:37.350Z,8.10
2023-05-17T04:41:07.393Z,5.78
2023-05-17T04:43:36.950Z,6.57
2023-05-17T04:46:07.196Z,6.05
2023-05-17T04:48:34.671Z,6.72
2023-05-17T04:51:06.734Z,7.07
2023-05-17T04:53:33.759Z,7.50
2023-05-17T04:56:07.314Z,6.57
2023-05-17T04:58:34.152Z,5.78
2023-05-17T05:01:03.399Z,6.28
2023-05-17T05:03:30.392Z,6.35
2023-05-17T05:05:57.314Z,6.22
2023-05-17T05:08:24.826Z,5.60
2023-05-17T05:10:53.183Z,7.05
2023-05-17T05:13:23.226Z,7.07
2023-05-17T05:15:51.453Z,6.80
2023-05-17T05:18:18.417Z,6.53
2023-05-17T05:20:48.606Z,5.78
2023-05-17T05:23:15.685Z,5.95
2023-05-17T05:25:44.744Z,6.35
2023-05-17T05:28:12.325Z,6.57
2023-05-17T05:30:41.010Z,6.45
2023-05-17T05:33:11.656Z,6.40
2023-05-17T05:35:38.760Z,5.95
2023-05-17T05:38:05.578Z,6.50
2023-05-17T05:40:33.209Z,6.38
2023-05-17T05:43:00.290Z,5.43
2023-05-17T05:45:27.267Z,5.70
2023-05-17T05:47:57.901Z,5.40
2023-05-17T05:50:25.368Z,5.95
2023-05-17T05:53:07.084Z,5.32
2023-05-17T05:55:42.570Z,4.95
2023-05-17T05:58:10.332Z,5.50
2023-05-17T06:00:38.432Z,5.45
2023-05-17T06:03:06.328Z,5.03
2023-05-17T06:05:33.473Z,5.43
2023-05-17T06:08:00.498Z,4.43
2023-05-17T06:10:28.617Z,4.32
2023-05-17T06:12:55.826Z,4.72
2023-05-17T06:15:22.723Z,3.80
2023-05-17T06:17:49.801Z,3.78
2023-05-17T06:20:16.900Z,3.22
2023-05-17T06:22:44.369Z,2.95
2023-05-17T06:25:11.498Z,2.75
2023-05-17T06:27:40.454Z,2.80
2023-05-17T06:30:08.712Z,2.80
2023-05-17T06:32:35.793Z,3.33
2023-05-17T06:35:03.716Z,2.28
2023-05-17T06:37:30.722Z,2.40
2023-05-17T06:40:15.000Z,2.50
2023-05-17T06:42:43.753Z,2.63
2023-05-17T06:45:12.026Z,2.60
2023-05-17T06:47:39.098Z,2.85
2023-05-17T06:50:08.659Z,2.85
2023-05-17T06:52:36.415Z,2.22
2023-05-17T06:55:03.428Z,3.25
2023-05-17T06:57:30.349Z,2.83
2023-05-17T06:59:57.251Z,2.40
2023-05-17T07:02:24.226Z,3.13
2023-05-17T07:04:51.182Z,2.60
2023-05-17T07:07:18.602Z,2.38
2023-05-17T07:09:46.143Z,2.05
2023-05-17T07:12:12.944Z,2.25
2023-05-17T07:14:39.738Z,2.17
2023-05-17T07:17:06.846Z,2.55
2023-05-17T07:19:33.827Z,2.53
2023-05-17T07:22:00.861Z,2.47
2023-05-17T07:24:27.747Z,2.08
2023-05-17T07:26:54.652Z,2.65
2023-05-17T07:29:21.482Z,1.83
2023-05-17T07:31:48.340Z,2.40
2023-05-17T07:34:15.369Z,2.90
2023-05-17T07:36:42.412Z,2.47
2023-05-17T07:39:10.120Z,2.15
2023-05-17T07:41:37.281Z,2.70
2023-05-17T07:44:04.179Z,2.42
2023-05-17T07:46:31.196Z,2.53
2023-05-17T07:48:59.041Z,2.00
2023-05-17T07:51:26.443Z,2.67
2023-05-17T07:53:53.540Z,2.80
2023-05-17T07:56:20.516Z,2.58
2023-05-17T07:58:47.841Z,2.28
2023-05-17T08:01:14.917Z,2.20
2023-05-17T08:03:47.971Z,3.10
2023-05-17T08:06:18.893Z,2.03
2023-05-17T08:08:46.003Z,2.13
2023-05-17T08:11:14.145Z,2.20
2023-05-17T08:13:41.546Z,2.28
2023-05-17T08:16:14.263Z,2.35
2023-05-17T08:18:43.628Z,2.00
2023-05-17T08:21:11.497Z,2.05
2023-05-17T08:23:38.899Z,2.42
2023-05-17T08:26:08.469Z,2.25
2023-05-17T08:28:35.416Z,2.22
2023-05-17T08:31:04.247Z,2.00
2023-05-17T08:33:31.365Z,2.17
2023-05-17T08:36:02.690Z,2.17
2023-05-17T08:38:29.912Z,2.25
2023-05-17T08:40:57.334Z,1.85
2023-05-17T08:43:27.595Z,2.00
2023-05-17T08:45:57.957Z,2.00
2023-05-17T08:48:27.601Z,1.80
2023-05-17T08:50:58.027Z,1.73
2023-05-17T08:53:25.703Z,2.13
2023-05-17T08:56:01.251Z,1.73
2023-05-17T08:58:52.279Z,1.65
2023-05-17T09:01:26.418Z,1.50
2023-05-17T09:03:54.473Z,1.70
2023-05-17T09:06:23.564Z,2.05
2023-05-17T09:08:54.797Z,1.92
2023-05-17T09:11:31.340Z,2.30
2023-05-17T09:14:05.065Z,2.08
2023-05-17T09:16:35.499Z,1.83
2023-05-17T09:19:05.808Z,1.95
2023-05-17T09:21:34.229Z,2.10
2023-05-17T09:26:43.176Z,1.98
2023-05-17T09:29:16.475Z,1.73
2023-05-17T09:31:44.641Z,2.13
2023-05-17T09:34:12.200Z,1.77
2023-05-17T09:36:44.006Z,2.00
2023-05-17T09:39:13.247Z,2.30
2023-05-17T09:41:51.183Z,1.80
2023-05-17T09:44:18.073Z,1.70
2023-05-17T09:46:48.024Z,1.63
2023-05-17T09:49:17.208Z,1.60
2023-05-17T09:51:48.663Z,1.40
2023-05-17T09:54:17.635Z,1.50
2023-05-17T09:56:45.204Z,1.67
2023-05-17T09:59:17.089Z,2.20
2023-05-17T10:01:45.881Z,2.00
2023-05-17T10:04:14.376Z,1.63
2023-05-17T10:06:49.564Z,1.95
2023-05-17T10:09:22.192Z,1.90
2023-05-17T10:11:56.514Z,2.00
2023-05-17T10:14:36.048Z,1.90
2023-05-17T10:17:03.679Z,2.03
2023-05-17T10:19:31.400Z,1.70
2023-05-17T10:22:11.031Z,1.90
2023-05-17T10:24:48.019Z,1.70
2023-05-17T10:27:16.149Z,1.70
2023-05-17T10:29:45.891Z,1.88
2023-05-17T10:32:14.895Z,2.10
2023-05-17T10:34:41.859Z,1.70
2023-05-17T10:37:10.149Z,2.00
2023-05-17T10:39:38.856Z,2.28
2023-05-17T10:42:14.652Z,1.92
2023-05-17T10:44:43.042Z,2.33
2023-05-17T10:47:12.249Z,1.67
2023-05-17T10:49:45.111Z,1.92
2023-05-17T10:52:16.767Z,1.90
2023-05-17T10:54:48.715Z,1.63
2023-05-17T11:00:09.340Z,1.60
2023-05-17T11:02:43.369Z,1.80
2023-05-17T11:05:25.532Z,2.05
2023-05-17T11:07:52.830Z,1.98
2023-05-17T11:10:19.712Z,1.88
2023-05-17T11:12:53.965Z,2.00
2023-05-17T11:15:26.604Z,1.92
2023-05-17T11:17:55.262Z,2.08
2023-05-17T11:20:27.577Z,2.08
2023-05-17T11:23:07.740Z,1.80
2023-05-17T11:25:37.999Z,2.35
2023-05-17T11:28:20.739Z,1.58
2023-05-17T11:30:57.054Z,2.55
2023-05-17T11:33:45.304Z,2.00
2023-05-17T11:36:31.321Z,1.80
2023-05-17T11:39:13.658Z,1.70
2023-05-17T11:41:49.932Z,1.65
2023-05-17T11:44:41.437Z,1.83
2023-05-17T11:47:09.828Z,1.60
2023-05-17T11:49:39.679Z,2.10
2023-05-17T11:52:08.196Z,2.13
2023-05-17T11:54:37.677Z,1.88
2023-05-17T11:57:06.440Z,1.58
2023-05-17T11:59:40.084Z,1.90
2023-05-17T12:02:07.709Z,1.80
2023-05-17T12:04:39.570Z,1.95
2023-05-17T12:07:11.115Z,1.60
2023-05-17T12:09:40.367Z,1.70
2023-05-17T12:12:08.660Z,1.80
2023-05-17T12:14:35.833Z,1.77
2023-05-17T12:17:08.104Z,1.65
2023-05-17T12:19:36.206Z,1.55
2023-05-17T12:22:14.596Z,1.65
2023-05-17T12:24:43.621Z,1.73
2023-05-17T12:27:11.602Z,1.50
2023-05-17T12:29:39.795Z,1.50
2023-05-17T12:32:10.425Z,1.25
2023-05-17T12:34:38.332Z,1.60
2023-05-17T12:37:10.604Z,1.83
2023-05-17T12:39:38.311Z,1.27
2023-05-17T12:42:06.605Z,1.77
2023-05-17T12:44:33.784Z,1.70
2023-05-17T12:47:02.807Z,1.60
2023-05-17T12:49:29.769Z,1.70
2023-05-17T12:51:56.678Z,1.95
2023-05-17T12:54:28.782Z,2.13
2023-05-17T12:56:56.700Z,1.77
2023-05-17T12:59:28.881Z,1.40
2023-05-17T13:01:57.551Z,1.40
2023-05-17T13:04:34.410Z,1.70
2023-05-17T13:07:04.659Z,1.50
2023-05-17T13:09:34.412Z,1.83
2023-05-17T13:12:07.162Z,1.80
2023-05-17T13:14:47.030Z,1.60
2023-05-17T13:17:27.756Z,2.03
2023-05-17T13:19:57.693Z,1.70
2023-05-17T13:22:25.488Z,1.65
2023-05-17T13:24:53.164Z,1.50
2023-05-17T13:27:20.176Z,1.92
2023-05-17T13:29:47.026Z,2.30
2023-05-17T13:32:14.422Z,1.60
2023-05-17T13:34:41.631Z,1.77
2023-05-17T13:37:11.900Z,1.50
2023-05-17T13:39:41.154Z,1.60
2023-05-17T13:42:08.813Z,2.10
2023-05-17T13:44:35.803Z,2.10
2023-05-17T13:47:02.612Z,1.92
2023-05-17T13:49:29.475Z,2.00
2023-05-17T13:51:56.726Z,1.80
2023-05-17T13:54:23.800Z,1.75
2023-05-17T13:56:51.164Z,1.80
2023-05-17T13:59:18.542Z,1.80
2023-05-17T14:01:46.126Z,1.60
2023-05-17T14:04:13.275Z,1.60
2023-05-17T14:06:41.589Z,1.90
2023-05-17T14:09:08.458Z,1.90
2023-05-17T14:11:35.334Z,1.80
2023-05-17T14:14:03.496Z,2.10
2023-05-17T14:16:30.384Z,1.88
2023-05-17T14:18:57.565Z,2.17
2023-05-17T14:21:24.498Z,1.83
2023-05-17T14:23:51.406Z,1.92
2023-05-17T14:26:18.280Z,1.85
2023-05-17T14:28:45.091Z,2.42
2023-05-17T14:31:12.033Z,1.63
2023-05-17T14:33:39.103Z,1.95
2023-05-17T14:36:06.704Z,1.70
2023-05-17T14:38:33.659Z,2.10
2023-05-17T14:41:01.248Z,1.50
2023-05-17T14:43:29.159Z,1.58
2023-05-17T14:45:56.156Z,2.20
2023-05-17T14:48:23.305Z,2.47
2023-05-17T14:50:50.371Z,1.77
2023-05-17T14:53:17.339Z,2.10
2023-05-17T14:55:44.849Z,1.90
2023-05-17T14:58:13.658Z,2.30
2023-05-17T15:00:41.924Z,2.20
2023-05-17T15:03:09.199Z,1.77
2023-05-17T15:05:37.790Z,2.28
2023-05-17T15:08:05.069Z,2.00
2023-05-17T15:10:32.087Z,1.90
2023-05-17T15:12:58.973Z,2.30
2023-05-17T15:15:25.827Z,2.25
2023-05-17T15:17:52.993Z,2.53
2023-05-17T15:20:20.545Z,2.33
2023-05-17T15:22:48.482Z,2.17
2023-05-17T15:25:16.197Z,2.00
2023-05-17T15:27:43.344Z,1.90
2023-05-17T15:30:13.277Z,2.55
2023-05-17T15:32:40.751Z,2.30
2023-05-17T15:35:08.401Z,2.10
2023-05-17T15:37:35.243Z,2.20
2023-05-17T15:40:09.804Z,2.45
2023-05-17T15:42:37.172Z,2.10
2023-05-17T15:45:04.902Z,2.30
2023-05-17T15:47:42.405Z,2.47
2023-05-17T15:50:12.126Z,2.40
2023-05-17T15:52:39.281Z,2.28
2023-05-17T15:55:06.620Z,2.03
2023-05-17T15:57:33.524Z,2.20
2023-05-17T16:00:00.508Z,2.25
2023-05-17T16:02:27.483Z,1.95
2023-05-17T16:04:54.695Z,2.10
2023-05-17T16:07:22.043Z,2.35
2023-05-17T16:09:48.869Z,3.10
2023-05-17T16:12:15.636Z,2.30
2023-05-17T16:14:42.680Z,2.38
2023-05-17T16:17:09.577Z,2.33
2023-05-17T16:19:36.659Z,2.28
2023-05-17T16:22:04.048Z,3.63
2023-05-17T16:24:30.936Z,2.00
2023-05-17T16:26:57.894Z,2.17
2023-05-17T16:29:24.724Z,2.03
2023-05-17T16:31:52.964Z,2.58
2023-05-17T16:34:19.964Z,2.20
2023-05-17T16:36:48.264Z,1.98
2023-05-17T16:39:15.166Z,1.95
2023-05-17T16:41:42.084Z,2.53
2023-05-17T16:44:08.969Z,2.10
2023-05-17T16:46:37.876Z,2.33
2023-05-17T16:49:05.041Z,2.50
2023-05-17T16:51:31.879Z,2.53
2023-05-17T16:53:58.773Z,2.70
2023-05-17T16:56:25.708Z,2.33
2023-05-17T16:58:52.534Z,2.58
2023-05-17T17:01:19.495Z,3.03
2023-05-17T17:03:46.364Z,2.17
2023-05-17T17:06:13.290Z,2.47
2023-05-17T17:08:40.194Z,2.75
2023-05-17T17:11:07.035Z,2.20
2023-05-17T17:13:34.080Z,1.95
2023-05-17T17:16:01.262Z,3.13
2023-05-17T17:18:29.092Z,2.40
2023-05-17T17:20:57.279Z,2.83
2023-05-17T17:23:24.269Z,2.72
2023-05-17T17:25:51.122Z,2.58
2023-05-17T17:28:18.103Z,2.50
2023-05-17T17:30:45.121Z,2.83
2023-05-17T17:33:12.135Z,2.42
2023-05-17T17:35:39.195Z,2.55
2023-05-17T17:38:06.210Z,2.63
2023-05-17T17:40:33.182Z,2.67
2023-05-17T17:43:00.212Z,3.33
2023-05-17T17:45:27.073Z,2.30
2023-05-17T17:47:53.940Z,2.22
2023-05-17T17:50:20.906Z,2.47
2023-05-17T17:52:48.080Z,2.85
2023-05-17T17:55:15.338Z,2.22
2023-05-17T17:57:42.154Z,2.47
2023-05-17T18:00:13.177Z,2.45
2023-05-17T18:02:40.562Z,2.97
2023-05-17T18:05:07.947Z,2.42
2023-05-17T18:07:34.984Z,2.70
2023-05-17T18:10:02.448Z,3.15
2023-05-17T18:12:29.674Z,3.15
2023-05-17T18:14:56.574Z,2.80
2023-05-17T18:17:23.525Z,2.40
2023-05-17T18:19:50.481Z,2.72
2023-05-17T18:22:17.460Z,2.60
2023-05-17T18:24:45.470Z,2.15
2023-05-17T18:27:15.078Z,2.92
2023-05-17T18:29:42.300Z,2.47
2023-05-17T18:32:10.040Z,2.92
2023-05-17T18:34:37.331Z,2.63
2023-05-17T18:37:04.977Z,3.28
2023-05-17T18:39:31.910Z,3.00
2023-05-17T18:41:59.201Z,2.72
2023-05-17T18:44:26.041Z,2.65
2023-05-17T18:46:53.981Z,3.10
2023-05-17T18:49:21.432Z,3.03
2023-05-17T18:51:48.428Z,2.50
2023-05-17T18:54:15.394Z,2.55
2023-05-17T18:56:42.260Z,2.42
2023-05-17T18:59:09.131Z,3.22
2023-05-17T19:01:37.145Z,2.67
2023-05-17T19:04:04.174Z,3.00
2023-05-17T19:06:31.867Z,3.08
2023-05-17T19:08:59.102Z,3.28
2023-05-17T19:11:28.622Z,3.03
2023-05-17T19:13:56.056Z,2.22
2023-05-17T19:16:22.859Z,2.42
2023-05-17T19:18:50.298Z,3.65
2023-05-17T19:21:17.438Z,3.28
2023-05-17T19:23:44.695Z,2.70
2023-05-17T19:26:11.617Z,3.22
2023-05-17T19:28:39.877Z,2.55
2023-05-17T19:31:08.215Z,2.60
2023-05-17T19:33:37.620Z,3.17
2023-05-17T19:36:04.750Z,3.20
2023-05-17T19:38:33.232Z,3.15
2023-05-17T19:41:01.598Z,3.17
2023-05-17T19:43:28.771Z,3.10
2023-05-17T19:45:55.841Z,3.22
2023-05-17T19:48:24.272Z,3.63
2023-05-17T19:50:51.580Z,3.40
2023-05-17T19:53:18.593Z,2.90
2023-05-17T19:55:45.760Z,3.50
2023-05-17T19:58:12.555Z,3.33
2023-05-17T20:00:39.432Z,2.95
2023-05-17T20:03:06.457Z,3.25
2023-05-17T20:05:33.426Z,2.70
2023-05-17T20:08:02.549Z,3.30
2023-05-17T20:10:32.964Z,3.50
2023-05-17T20:12:59.959Z,3.45
2023-05-17T20:15:26.913Z,3.47
2023-05-17T20:17:53.878Z,3.58
2023-05-17T20:20:20.812Z,4.85
2023-05-17T20:22:48.391Z,4.40
2023-05-17T20:25:15.315Z,3.30
2023-05-17T20:27:42.203Z,3.97
2023-05-17T20:30:09.762Z,2.75
2023-05-17T20:32:36.663Z,2.90
2023-05-17T20:35:03.691Z,3.20
2023-05-17T20:37:30.777Z,3.10
2023-05-17T20:40:00.005Z,3.28
2023-05-17T20:42:28.212Z,3.50
2023-05-17T20:44:55.517Z,4.97
2023-05-17T20:47:22.675Z,3.30
2023-05-17T20:49:50.410Z,3.30
2023-05-17T20:52:31.344Z,3.65
2023-05-17T20:55:06.461Z,3.25
2023-05-17T20:57:33.301Z,2.78
2023-05-17T21:00:00.160Z,4.47
2023-05-17T21:02:27.245Z,3.85
2023-05-17T21:04:54.721Z,3.92
2023-05-17T21:07:26.397Z,2.95
2023-05-17T21:09:53.291Z,3.63
2023-05-17T21:12:21.448Z,4.07
2023-05-17T21:14:59.791Z,4.22
2023-05-17T21:17:35.217Z,3.38
2023-05-17T21:20:02.177Z,3.63
2023-05-17T21:22:29.110Z,3.15
2023-05-17T21:24:56.095Z,3.20
2023-05-17T21:27:22.879Z,3.25
2023-05-17T21:29:49.911Z,2.92
2023-05-17T21:32:17.148Z,4.05
2023-05-17T21:34:44.955Z,3.17
2023-05-17T21:37:12.118Z,3.47
2023-05-17T21:39:39.054Z,3.65
2023-05-17T21:42:06.200Z,4.18
2023-05-17T21:44:33.087Z,3.30
2023-05-17T21:47:00.203Z,2.97
2023-05-17T21:49:28.500Z,3.58
2023-05-17T21:51:55.513Z,3.45
2023-05-17T21:54:24.817Z,3.35
2023-05-17T21:56:52.827Z,3.65
2023-05-17T21:59:19.744Z,3.55
2023-05-17T22:01:46.654Z,4.05
2023-05-17T22:04:13.544Z,3.53
2023-05-17T22:06:40.654Z,3.63
2023-05-17T22:09:09.468Z,3.40
2023-05-17T22:11:38.413Z,3.45
2023-05-17T22:14:08.606Z,4.13
2023-05-17T22:16:36.597Z,3.60
2023-05-17T22:19:04.860Z,3.65
2023-05-17T22:21:32.309Z,3.80
2023-05-17T22:23:59.578Z,3.50
2023-05-17T22:26:27.740Z,4.15
2023-05-17T22:28:55.703Z,3.45
2023-05-17T22:31:22.941Z,3.20
2023-05-17T22:33:50.484Z,3.60
2023-05-17T22:36:19.039Z,2.97
2023-05-17T22:38:46.696Z,3.45
2023-05-17T22:41:13.688Z,3.22
2023-05-17T22:43:40.545Z,3.03
2023-05-17T22:46:07.575Z,3.08
2023-05-17T22:48:37.307Z,3.95
2023-05-17T22:51:04.496Z,3.70
2023-05-17T22:53:31.639Z,3.53
2023-05-17T22:55:58.610Z,3.33
2023-05-17T22:58:25.747Z,3.47
2023-05-17T23:00:52.937Z,3.40
2023-05-17T23:03:20.396Z,3.08
2023-05-17T23:05:47.927Z,3.20
2023-05-17T23:08:18.221Z,2.85
2023-05-17T23:10:45.358Z,3.08
2023-05-17T23:13:13.102Z,2.92
2023-05-17T23:15:40.772Z,3.30
2023-05-17T23:18:07.782Z,3.50
2023-05-17T23:20:35.040Z,3.10
2023-05-17T23:23:02.131Z,3.10
2023-05-17T23:25:30.020Z,3.15
2023-05-17T23:28:00.017Z,3.72
2023-05-17T23:30:27.890Z,2.50
2023-05-17T23:32:55.388Z,3.08
2023-05-17T23:35:24.072Z,3.28
2023-05-17T23:37:50.899Z,2.80
2023-05-17T23:40:17.863Z,2.47
2023-05-17T23:42:44.753Z,3.58
2023-05-17T23:45:11.679Z,2.80
2023-05-17T23:47:40.902Z,2.83
2023-05-17T23:50:12.128Z,2.17
2023-05-17T23:52:39.494Z,2.90
2023-05-17T23:55:07.667Z,2.60
2023-05-17T23:57:35.335Z,2.70
